Time;durP1;ratioP1;P1;durP2;ratioP2;P2;SDS_P1;SDS_P2;PMS_P1;PMS_P2;Temp;Humidity;BMP_temperature;BMP_pressure;BME280_temperature;BME280_humidity;BME280_pressure;Samples;Min_cycle;Max_cycle;Signal;HPM_P1;HPM_P2
2022/06/20 00:01:13;;;;;;;1.10;0.80;;;13.70;99.90;;;;;;6213613;23;20017;-81
2022/06/20 00:03:41;;;;;;;2.50;1.42;;;13.70;99.90;;;;;;6213966;23;20023;-81
2022/06/20 00:06:15;;;;;;;2.65;1.38;;;13.70;99.90;;;;;;6213641;23;20020;-81
2022/06/20 00:08:41;;;;;;;4.50;1.60;;;13.70;99.90;;;;;;6213716;23;20012;-81
2022/06/20 00:11:16;;;;;;;3.33;1.40;;;13.70;99.90;;;;;;6188481;23;20464;-81
2022/06/20 00:13:45;;;;;;;3.08;1.05;;;13.70;99.90;;;;;;6214238;23;20471;-80
2022/06/20 00:16:14;;;;;;;3.78;1.48;;;13.70;99.90;;;;;;6188591;23;20381;-82
2022/06/20 00:18:40;;;;;;;6.65;2.40;;;13.60;99.90;;;;;;6189131;23;20017;-81
2022/06/20 00:21:06;;;;;;;4.23;1.23;;;13.60;99.90;;;;;;6188729;23;20311;-82
2022/06/20 00:23:32;;;;;;;3.10;2.28;;;13.60;99.90;;;;;;6214324;23;20021;-83
2022/06/20 00:25:57;;;;;;;3.87;1.57;;;13.60;99.90;;;;;;6189575;23;20017;-81
2022/06/20 00:28:23;;;;;;;2.10;1.60;;;13.60;99.90;;;;;;6193864;23;20474;-80
2022/06/20 00:30:49;;;;;;;1.90;1.10;;;13.60;99.90;;;;;;6169239;23;20059;-80
2022/06/20 00:33:15;;;;;;;5.63;1.40;;;13.60;99.90;;;;;;6193692;23;20026;-80
2022/06/20 00:35:41;;;;;;;0.95;0.93;;;13.60;99.90;;;;;;6219624;23;20167;-81
2022/06/20 00:38:11;;;;;;;;;;;13.60;99.90;;;;;;6219416;23;20018;-82
2022/06/20 00:40:40;;;;;;;3.80;0.93;;;13.60;99.90;;;;;;6218807;23;19915;-81
2022/06/20 00:43:13;;;;;;;4.05;1.77;;;13.60;99.90;;;;;;6219160;23;20017;-85
2022/06/20 00:45:43;;;;;;;1.95;1.25;;;13.60;99.90;;;;;;6219012;23;20020;-81
2022/06/20 00:48:20;;;;;;;2.28;1.90;;;12.60;99.90;;;;;;6218591;23;20012;-81
2022/06/20 00:50:50;;;;;;;2.83;1.53;;;13.70;99.90;;;;;;6219069;23;20318;-81
2022/06/20 00:53:26;;;;;;;2.80;1.15;;;13.70;99.90;;;;;;6218705;23;20016;-81
2022/06/20 00:56:15;;;;;;;1.73;1.25;;;13.70;99.90;;;;;;6219162;23;20019;-81
2022/06/20 00:58:47;;;;;;;2.85;1.77;;;13.70;99.90;;;;;;6219125;23;20059;-81
2022/06/20 01:01:15;;;;;;;2.85;1.63;;;13.70;99.90;;;;;;6218615;23;20024;-81
2022/06/20 01:03:49;;;;;;;1.77;1.40;;;13.70;99.90;;;;;;6169280;23;20070;-81
2022/06/20 01:06:24;;;;;;;4.72;1.67;;;13.70;99.90;;;;;;6218020;23;20017;-80
2022/06/20 01:08:56;;;;;;;6.15;1.40;;;12.80;99.90;;;;;;6194104;23;20498;-80
2022/06/20 01:11:26;;;;;;;3.00;1.30;;;13.70;99.90;;;;;;6193839;23;20016;-81
2022/06/20 01:13:53;;;;;;;4.18;1.70;;;13.70;99.90;;;;;;6218780;23;20022;-81
2022/06/20 01:16:30;;;;;;;2.58;1.35;;;13.70;99.90;;;;;;6218080;23;20079;-81
2022/06/20 01:18:58;;;;;;;;;;;13.70;99.90;;;;;;6219268;23;20391;-81
2022/06/20 01:21:35;;;;;;;2.88;2.05;;;13.70;99.90;;;;;;6243640;23;19919;-81
2022/06/20 01:24:19;;;;;;;1.65;1.30;;;13.70;99.90;;;;;;6219099;23;20449;-81
2022/06/20 01:27:10;;;;;;;3.53;1.42;;;13.70;99.90;;;;;;6218975;23;20028;-81
2022/06/20 01:29:36;;;;;;;1.20;0.90;;;13.70;99.90;;;;;;6218304;23;20376;-81
2022/06/20 01:32:04;;;;;;;1.20;1.10;;;13.70;99.90;;;;;;6193874;23;20051;-82
2022/06/20 01:34:31;;;;;;;1.92;1.33;;;13.70;99.90;;;;;;6245213;23;20326;-80
2022/06/20 01:39:47;;;;;;;2.33;1.20;;;13.70;99.90;;;;;;6218861;23;20024;-81
2022/06/20 01:42:20;;;;;;;2.10;1.30;;;13.60;99.90;;;;;;6218786;23;20111;-81
2022/06/20 01:44:47;;;;;;;1.98;1.77;;;13.60;99.90;;;;;;6218597;23;20461;-81
2022/06/20 01:47:13;;;;;;;2.95;1.40;;;13.60;99.90;;;;;;6218592;23;20027;-80
2022/06/20 01:49:41;;;;;;;1.95;1.50;;;13.50;99.90;;;;;;6218431;23;20013;-81
2022/06/20 01:52:36;;;;;;;1.67;1.02;;;13.60;99.90;;;;;;6220633;23;20521;-81
2022/06/20 01:55:11;;;;;;;2.28;1.63;;;13.50;99.90;;;;;;6220881;23;20016;-81
2022/06/20 01:57:40;;;;;;;2.75;1.67;;;13.50;99.90;;;;;;6195216;23;20016;-81
2022/06/20 02:00:12;;;;;;;6.32;1.80;;;13.50;99.90;;;;;;6220044;23;20105;-81
2022/06/20 02:02:54;;;;;;;5.18;1.52;;;13.50;99.90;;;;;;6194984;23;20024;-81
2022/06/20 02:05:26;;;;;;;2.15;1.20;;;13.50;99.90;;;;;;6220151;23;20364;-81
2022/06/20 02:07:54;;;;;;;4.30;1.38;;;13.50;99.90;;;;;;6220567;23;20351;-81
2022/06/20 02:10:26;;;;;;;2.53;1.23;;;13.50;99.90;;;;;;6194637;23;20082;-82
2022/06/20 02:12:56;;;;;;;1.67;1.00;;;13.40;99.90;;;;;;6220621;23;20024;-81
2022/06/20 02:15:22;;;;;;;3.03;1.65;;;13.30;99.90;;;;;;6195026;23;20016;-81
2022/06/20 02:17:49;;;;;;;3.83;1.90;;;13.40;99.90;;;;;;6195259;23;20050;-81
2022/06/20 02:20:23;;;;;;;2.88;1.27;;;13.30;99.90;;;;;;6247010;23;20231;-81
2022/06/20 02:22:50;;;;;;;2.78;1.25;;;13.30;99.90;;;;;;6220426;23;20016;-81
2022/06/20 02:25:21;;;;;;;1.80;1.58;;;13.20;99.90;;;;;;6195629;23;20023;-81
2022/06/20 02:27:51;;;;;;;3.97;2.20;;;13.20;99.90;;;;;;6220064;23;20016;-81
2022/06/20 02:30:17;;;;;;;1.65;1.52;;;13.20;99.90;;;;;;6246760;23;20059;-81
2022/06/20 02:33:00;;;;;;;3.58;2.38;;;13.20;99.90;;;;;;6194804;23;20081;-81
2022/06/20 02:35:26;;;;;;;1.92;1.65;;;13.10;99.90;;;;;;6219757;23;20042;-81
2022/06/20 02:37:52;;;;;;;1.83;1.70;;;13.10;99.90;;;;;;6220047;23;20039;-80
2022/06/20 02:40:21;;;;;;;2.05;1.40;;;13.00;99.90;;;;;;6246769;23;20027;-81
2022/06/20 02:43:28;;;;;;;1.83;1.40;;;13.10;99.90;;;;;;6220002;23;20012;-81
2022/06/20 02:45:55;;;;;;;1.85;1.58;;;13.00;99.90;;;;;;6220040;23;20020;-81
2022/06/20 02:48:24;;;;;;;4.10;1.63;;;12.90;99.90;;;;;;6219268;23;20471;-86
2022/06/20 02:50:53;;;;;;;1.02;1.02;;;12.90;99.90;;;;;;6219747;23;20018;-81
2022/06/20 02:53:32;;;;;;;2.10;1.02;;;12.90;99.90;;;;;;6246660;23;20102;-80
2022/06/20 02:55:58;;;;;;;2.92;1.30;;;12.80;99.90;;;;;;6194579;23;20023;-81
2022/06/20 02:58:29;;;;;;;3.42;1.02;;;12.70;99.90;;;;;;6219522;23;20020;-82
2022/06/20 03:01:12;;;;;;;2.03;1.42;;;12.70;99.90;;;;;;6246738;23;20027;-81
2022/06/20 03:03:46;;;;;;;1.10;1.00;;;12.50;99.90;;;;;;6219056;23;20020;-81
2022/06/20 03:06:30;;;;;;;3.55;2.08;;;12.50;99.90;;;;;;6220078;23;20475;-81
2022/06/20 03:08:57;;;;;;;2.78;1.40;;;12.40;99.90;;;;;;6194852;23;20024;-81
2022/06/20 03:11:25;;;;;;;2.58;1.90;;;12.40;99.90;;;;;;6194777;23;20035;-81
2022/06/20 03:13:51;;;;;;;1.75;1.30;;;12.40;99.90;;;;;;6246779;23;20020;-81
2022/06/20 03:16:17;;;;;;;1.38;1.27;;;12.40;99.90;;;;;;6219942;23;20020;-81
2022/06/20 03:18:49;;;;;;;3.03;1.63;;;12.40;99.90;;;;;;6246223;23;20020;-81
2022/06/20 03:21:20;;;;;;;3.20;1.60;;;12.40;99.90;;;;;;6194483;23;20263;-81
2022/06/20 03:23:45;;;;;;;1.50;1.40;;;12.30;99.90;;;;;;6219654;23;20070;-81
2022/06/20 03:26:19;;;;;;;3.43;1.60;;;12.30;99.90;;;;;;6194954;23;20388;-80
2022/06/20 03:28:46;;;;;;;3.85;1.77;;;12.30;99.90;;;;;;6218963;23;20023;-81
2022/06/20 03:31:11;;;;;;;1.98;1.40;;;12.30;99.90;;;;;;6194459;23;20459;-81
2022/06/20 03:33:38;;;;;;;3.35;1.38;;;12.20;99.90;;;;;;6246067;23;20024;-81
2022/06/20 03:36:15;;;;;;;1.88;1.52;;;12.40;99.90;;;;;;6194973;23;20453;-79
2022/06/20 03:38:43;;;;;;;;;;;12.20;99.90;;;;;;6219970;23;20099;-81
2022/06/20 03:41:12;;;;;;;4.55;2.33;;;12.20;99.90;;;;;;6219430;23;19916;-80
2022/06/20 03:43:39;;;;;;;2.33;1.50;;;12.10;99.90;;;;;;6218668;23;20078;-81
2022/06/20 03:46:15;;;;;;;2.17;1.48;;;12.10;99.90;;;;;;6220005;23;20027;-80
2022/06/20 03:48:53;;;;;;;2.67;1.17;;;12.10;99.90;;;;;;6219217;23;20026;-80
2022/06/20 03:51:27;;;;;;;1.10;1.00;;;12.10;99.90;;;;;;6220077;23;20097;-80
2022/06/20 03:54:06;;;;;;;3.90;1.85;;;12.10;99.90;;;;;;6219043;23;20106;-81
2022/06/20 03:56:48;;;;;;;1.58;1.48;;;12.10;99.90;;;;;;6194201;23;20019;-81
2022/06/20 03:59:24;;;;;;;1.40;1.27;;;12.00;99.90;;;;;;6219580;23;20016;-80
2022/06/20 04:02:01;;;;;;;2.83;2.22;;;12.00;99.90;;;;;;6245789;23;20212;-80
2022/06/20 04:04:37;;;;;;;1.98;1.77;;;11.90;99.90;;;;;;6219449;23;20012;-80
2022/06/20 04:07:08;;;;;;;2.58;1.30;;;11.90;99.90;;;;;;6219374;23;20506;-80
2022/06/20 04:12:42;;;;;;;2.20;1.30;;;11.90;99.90;;;;;;6219463;23;20031;-81
2022/06/20 04:15:07;;;;;;;2.47;2.28;;;11.90;99.90;;;;;;6219633;23;20020;-81
2022/06/20 04:18:27;;;;;;;2.53;1.80;;;11.90;99.90;;;;;;6219109;23;20456;-81
2022/06/20 04:20:57;;;;;;;1.92;1.48;;;12.00;99.90;;;;;;6193665;23;20322;-80
2022/06/20 04:23:33;;;;;;;3.75;1.77;;;12.00;99.90;;;;;;6246033;23;20020;-81
2022/06/20 04:26:10;;;;;;;4.45;1.50;;;12.10;99.90;;;;;;6219472;23;20103;-80
2022/06/20 04:28:47;;;;;;;2.15;1.73;;;12.10;99.90;;;;;;6218930;23;20027;-81
2022/06/20 04:31:25;;;;;;;;;;;12.20;99.90;;;;;;6194223;23;20439;-81
2022/06/20 04:34:00;;;;;;;4.05;2.45;;;12.20;99.90;;;;;;6218719;23;19915;-81
2022/06/20 04:36:55;;;;;;;2.65;2.45;;;12.30;99.90;;;;;;6219048;23;20020;-81
2022/06/20 04:39:39;;;;;;;3.33;1.67;;;12.30;99.90;;;;;;6245819;23;20051;-80
2022/06/20 04:42:12;;;;;;;1.60;1.38;;;12.40;99.90;;;;;;6218990;23;20020;-80
2022/06/20 04:44:53;;;;;;;5.22;1.98;;;12.50;99.90;;;;;;6218946;23;20104;-81
2022/06/20 04:47:27;;;;;;;1.83;1.65;;;12.60;99.90;;;;;;6219306;23;20047;-80
2022/06/20 04:49:53;;;;;;;4.53;1.92;;;12.70;99.90;;;;;;6218489;23;20023;-81
2022/06/20 04:52:24;;;;;;;2.17;1.50;;;12.80;99.90;;;;;;6218935;23;20371;-81
2022/06/20 04:54:49;;;;;;;3.25;1.92;;;12.90;99.90;;;;;;6218509;23;20254;-81
2022/06/20 04:57:15;;;;;;;2.83;2.37;;;12.90;99.90;;;;;;6219020;23;20016;-80
2022/06/20 04:59:42;;;;;;;2.55;1.70;;;13.00;99.90;;;;;;6144664;23;20066;-81
2022/06/20 05:02:15;;;;;;;2.25;2.05;;;13.00;99.90;;;;;;6219064;23;20095;-81
2022/06/20 05:04:43;;;;;;;7.13;1.80;;;13.00;99.90;;;;;;6243854;23;20020;-80
2022/06/20 05:07:26;;;;;;;2.35;2.03;;;13.10;99.90;;;;;;6245240;23;20472;-81
2022/06/20 05:10:21;;;;;;;2.97;1.67;;;13.20;99.90;;;;;;6218340;23;20012;-80
2022/06/20 05:13:08;;;;;;;3.67;2.20;;;13.30;99.90;;;;;;6218585;23;20026;-81
2022/06/20 05:15:41;;;;;;;3.20;2.03;;;13.50;99.90;;;;;;6218946;23;20016;-80
2022/06/20 05:18:22;;;;;;;7.40;2.35;;;13.90;99.90;;;;;;6219850;23;20023;-81
2022/06/20 05:20:52;;;;;;;4.82;1.95;;;14.30;99.90;;;;;;6218807;23;20081;-81
2022/06/20 05:23:31;;;;;;;3.00;1.88;;;14.50;99.90;;;;;;6193628;23;20016;-80
2022/06/20 05:26:00;;;;;;;4.45;1.70;;;14.70;99.90;;;;;;6194219;23;20020;-81
2022/06/20 05:28:27;;;;;;;4.85;1.60;;;14.90;99.90;;;;;;6251148;23;20027;-80
2022/06/20 05:30:53;;;;;;;1.80;1.70;;;15.00;99.90;;;;;;6220338;23;20022;-81
2022/06/20 05:33:31;;;;;;;3.55;1.58;;;15.10;99.90;;;;;;6221071;23;20074;-81
2022/06/20 05:36:00;;;;;;;5.57;2.53;;;14.40;99.90;;;;;;6194971;23;20071;-81
2022/06/20 05:38:34;;;;;;;5.65;1.80;;;15.10;99.90;;;;;;6220381;23;20020;-81
2022/06/20 05:41:01;;;;;;;2.67;2.42;;;15.00;99.90;;;;;;6219728;23;20016;-82
2022/06/20 05:43:31;;;;;;;3.30;2.55;;;15.00;99.90;;;;;;6223971;23;20470;-81
2022/06/20 05:46:04;;;;;;;3.60;2.47;;;15.00;99.90;;;;;;6194718;23;20023;-82
2022/06/20 05:48:51;;;;;;;5.57;2.00;;;15.10;99.90;;;;;;6220438;23;20039;-81
2022/06/20 05:51:20;;;;;;;5.10;2.85;;;15.20;99.90;;;;;;6220424;23;20090;-82
2022/06/20 05:53:52;;;;;;;7.75;2.67;;;15.20;99.90;;;;;;6219459;23;20051;-82
2022/06/20 05:56:56;;;;;;;2.15;1.98;;;15.30;99.90;;;;;;6220204;23;20054;-81
2022/06/20 05:59:27;;;;;;;2.88;2.00;;;15.40;99.90;;;;;;6163377;23;20012;-81
2022/06/20 06:02:09;;;;;;;7.90;2.53;;;15.50;99.90;;;;;;6194456;23;20091;-82
2022/06/20 06:04:45;;;;;;;4.85;1.90;;;15.50;99.90;;;;;;6220196;23;20016;-82
2022/06/20 06:07:25;;;;;;;7.15;2.10;;;15.60;99.90;;;;;;6220490;23;20020;-81
2022/06/20 06:10:04;;;;;;;3.58;2.83;;;15.70;99.90;;;;;;6219480;23;20038;-82
2022/06/20 06:12:39;;;;;;;7.03;2.35;;;15.80;99.90;;;;;;6220118;23;20020;-81
2022/06/20 06:15:15;;;;;;;3.55;2.00;;;15.90;99.90;;;;;;6219441;23;20253;-82
2022/06/20 06:17:55;;;;;;;4.05;1.77;;;15.90;99.90;;;;;;6246963;23;20329;-82
2022/06/20 06:20:24;;;;;;;4.13;2.33;;;15.90;99.90;;;;;;6246788;23;20018;-81
2022/06/20 06:22:59;;;;;;;4.97;2.00;;;16.00;99.90;;;;;;6219235;23;20062;-82
2022/06/20 06:25:30;;;;;;;7.78;2.70;;;16.10;99.90;;;;;;6220048;23;20332;-81
2022/06/20 06:28:00;;;;;;;7.88;4.30;;;16.20;99.90;;;;;;6194150;23;20070;-82
2022/06/20 06:30:45;;;;;;;4.63;2.95;;;16.20;99.90;;;;;;6220287;23;20062;-82
2022/06/20 06:33:29;;;;;;;5.60;2.65;;;16.10;99.90;;;;;;6219466;23;20020;-82
2022/06/20 06:36:07;;;;;;;2.55;2.25;;;16.10;99.90;;;;;;6219329;23;20433;-82
2022/06/20 06:38:45;;;;;;;5.20;2.47;;;16.00;99.90;;;;;;6220079;23;20017;-81
2022/06/20 06:41:27;;;;;;;5.75;3.22;;;15.90;99.90;;;;;;6219375;23;20479;-82
2022/06/20 06:43:54;;;;;;;7.93;2.53;;;15.90;99.90;;;;;;6246121;23;20024;-82
2022/06/20 06:46:38;;;;;;;3.40;1.85;;;15.90;99.90;;;;;;6219680;23;20019;-81
2022/06/20 06:49:30;;;;;;;2.38;2.03;;;16.20;99.90;;;;;;6194322;23;20020;-82
2022/06/20 06:52:13;;;;;;;3.05;2.40;;;16.30;99.90;;;;;;6199666;23;20024;-81
2022/06/20 06:54:42;;;;;;;1.92;1.60;;;16.50;99.90;;;;;;6219771;23;20480;-82
2022/06/20 06:57:20;;;;;;;7.43;2.45;;;16.60;99.90;;;;;;6218937;23;20016;-82
2022/06/20 07:00:14;;;;;;;5.55;2.05;;;16.60;99.90;;;;;;6219709;23;20012;-81
2022/06/20 07:02:52;;;;;;;5.90;2.13;;;16.50;99.90;;;;;;6245065;23;20020;-82
2022/06/20 07:05:36;;;;;;;3.83;1.98;;;16.30;99.90;;;;;;6219459;23;20016;-82
2022/06/20 07:08:40;;;;;;;4.45;2.00;;;16.10;99.90;;;;;;6219205;23;20016;-82
2022/06/20 07:11:21;;;;;;;3.17;2.17;;;15.90;99.90;;;;;;6069973;23;20444;-82
2022/06/20 07:13:58;;;;;;;5.15;1.90;;;15.70;99.90;;;;;;6209934;23;20016;-82
2022/06/20 07:16:45;;;;;;;2.15;1.40;;;15.50;99.90;;;;;;6219544;23;20031;-82
2022/06/20 07:19:13;;;;;;;2.80;2.08;;;15.40;99.90;;;;;;6219048;23;20083;-82
2022/06/20 07:21:40;;;;;;;5.00;2.50;;;15.60;99.90;;;;;;6194221;23;20319;-82
2022/06/20 07:24:16;;;;;;;4.18;2.15;;;15.80;99.90;;;;;;6245635;23;20105;-81
2022/06/20 07:26:48;;;;;;;3.30;2.72;;;16.10;99.90;;;;;;6246243;23;20028;-82
2022/06/20 07:29:20;;;;;;;3.70;1.90;;;16.30;99.90;;;;;;6193626;23;20225;-81
2022/06/20 07:31:50;;;;;;;3.63;2.45;;;16.60;99.90;;;;;;6219419;23;20016;-81
2022/06/20 07:34:22;;;;;;;2.53;2.33;;;16.80;99.90;;;;;;6218964;23;20372;-81
2022/06/20 07:36:55;;;;;;;3.05;1.80;;;17.00;99.90;;;;;;6193893;23;20020;-82
2022/06/20 07:39:30;;;;;;;2.67;2.17;;;17.10;99.90;;;;;;6194432;23;20024;-82
2022/06/20 07:42:05;;;;;;;3.63;2.10;;;17.10;99.90;;;;;;6218674;23;20421;-87
2022/06/20 07:44:44;;;;;;;6.53;1.83;;;17.00;99.90;;;;;;6219256;23;20023;-82
2022/06/20 07:47:17;;;;;;;5.07;2.80;;;16.80;99.90;;;;;;6218753;23;20020;-82
2022/06/20 07:49:53;;;;;;;6.07;2.53;;;16.70;99.90;;;;;;6219161;23;20352;-81
2022/06/20 07:52:35;;;;;;;2.83;2.28;;;16.50;99.90;;;;;;6218815;23;20099;-81
2022/06/20 07:55:11;;;;;;;2.65;1.88;;;16.30;99.90;;;;;;6243970;23;20514;-82
2022/06/20 07:57:51;;;;;;;6.63;2.17;;;16.10;99.90;;;;;;6219151;23;20012;-81
2022/06/20 08:00:20;;;;;;;5.75;2.53;;;16.00;99.90;;;;;;6218467;23;20064;-81
2022/06/20 08:02:51;;;;;;;4.60;2.40;;;15.90;99.90;;;;;;6218531;23;20525;-81
2022/06/20 08:05:23;;;;;;;5.93;1.98;;;15.90;99.90;;;;;;6218570;23;20027;-81
2022/06/20 08:08:01;;;;;;;3.00;1.60;;;15.80;99.90;;;;;;6194135;23;20023;-81
2022/06/20 08:10:29;;;;;;;;;;;15.80;99.90;;;;;;6246563;23;20090;-81
2022/06/20 08:13:14;;;;;;;3.33;2.22;;;15.80;99.90;;;;;;6193380;23;19915;-81
2022/06/20 08:15:45;;;;;;;3.38;2.13;;;15.70;99.90;;;;;;6218894;23;20062;-81
2022/06/20 08:18:12;;;;;;;2.97;1.40;;;15.70;99.90;;;;;;6245236;23;20027;-81
2022/06/20 08:20:41;;;;;;;;;;;15.80;99.90;;;;;;6194297;23;20154;-82
2022/06/20 08:23:21;;;;;;;7.05;2.75;;;16.10;99.90;;;;;;6218130;23;19922;-82
2022/06/20 08:25:57;;;;;;;4.45;1.98;;;16.40;99.90;;;;;;6218797;23;20087;-81
2022/06/20 08:28:40;;;;;;;6.60;2.65;;;16.50;99.90;;;;;;6217932;23;20091;-81
2022/06/20 08:31:21;;;;;;;4.20;2.53;;;16.50;99.90;;;;;;6193157;23;20031;-82
2022/06/20 08:33:52;;;;;;;2.45;1.95;;;16.50;99.90;;;;;;6193753;23;20086;-81
2022/06/20 08:36:28;;;;;;;2.38;1.35;;;16.30;99.90;;;;;;6218243;23;20035;-81
2022/06/20 08:39:04;;;;;;;4.85;1.58;;;16.20;99.90;;;;;;6245794;23;20098;-81
2022/06/20 08:41:54;;;;;;;1.50;1.02;;;16.10;99.90;;;;;;6218470;23;20028;-81
2022/06/20 08:45:05;;;;;;;2.72;1.30;;;16.20;99.90;;;;;;6193119;23;20354;-81
2022/06/20 08:47:42;;;;;;;4.03;1.00;;;16.50;99.90;;;;;;6186800;23;20094;-81
2022/06/20 08:50:27;;;;;;;2.08;1.08;;;16.80;99.90;;;;;;6245019;23;20016;-82
2022/06/20 08:53:02;;;;;;;2.83;1.60;;;17.10;99.90;;;;;;6218717;23;20020;-81
2022/06/20 08:55:30;;;;;;;2.63;1.00;;;17.30;99.90;;;;;;6192963;23;20020;-81
2022/06/20 08:57:56;;;;;;;3.80;1.63;;;17.40;99.90;;;;;;6193064;23;20020;-81
2022/06/20 09:00:54;;;;;;;0.70;0.67;;;17.50;99.90;;;;;;6218305;23;20027;-81
2022/06/20 09:03:40;;;;;;;1.60;0.68;;;17.60;99.90;;;;;;6220214;23;20019;-81
2022/06/20 09:06:14;;;;;;;5.32;1.95;;;17.80;99.90;;;;;;6195225;23;20020;-83
2022/06/20 09:09:03;;;;;;;1.38;1.17;;;17.90;99.90;;;;;;6220997;23;20012;-82
2022/06/20 09:12:07;;;;;;;2.30;1.02;;;17.80;99.90;;;;;;6246992;23;20008;-82
2022/06/20 09:15:07;;;;;;;0.77;0.70;;;17.70;99.90;;;;;;6247427;23;20074;-82
2022/06/20 09:17:56;;;;;;;1.38;0.90;;;17.50;99.90;;;;;;6195468;23;20027;-81
2022/06/20 09:20:41;;;;;;;4.78;1.60;;;17.50;99.90;;;;;;6195077;23;20078;-82
2022/06/20 09:23:15;;;;;;;4.55;1.60;;;17.70;99.90;;;;;;6247417;23;20016;-82
2022/06/20 09:25:44;;;;;;;1.83;1.55;;;17.80;99.90;;;;;;6195812;23;20460;-82
2022/06/20 09:28:25;;;;;;;3.88;1.77;;;17.90;99.90;;;;;;6217731;23;20532;-83
2022/06/20 09:30:53;;;;;;;2.28;1.35;;;17.90;99.90;;;;;;6220151;23;20555;-82
2022/06/20 09:33:34;;;;;;;5.07;1.50;;;17.90;99.90;;;;;;6245313;23;20022;-81
2022/06/20 09:36:12;;;;;;;1.65;0.90;;;17.70;99.90;;;;;;6220597;23;20020;-81
2022/06/20 09:39:13;;;;;;;1.63;1.52;;;17.60;99.90;;;;;;6220368;23;20016;-81
2022/06/20 09:42:06;;;;;;;0.98;0.88;;;17.50;99.90;;;;;;6163432;23;20086;-81
2022/06/20 09:44:48;;;;;;;1.52;1.10;;;17.40;99.90;;;;;;6246751;23;20016;-82
2022/06/20 09:47:23;;;;;;;3.95;1.40;;;17.30;99.90;;;;;;6219968;23;20026;-82
2022/06/20 09:50:21;;;;;;;1.83;0.90;;;17.40;99.90;;;;;;6220470;23;20095;-82
2022/06/20 09:53:16;;;;;;;2.50;1.42;;;17.70;99.90;;;;;;6220571;23;20345;-81
2022/06/20 09:56:00;;;;;;;3.88;2.03;;;17.90;99.90;;;;;;6139017;23;20012;-81
2022/06/20 09:58:44;;;;;;;1.00;0.95;;;18.20;99.90;;;;;;6219565;23;20024;-82
2022/06/20 10:01:32;;;;;;;1.25;1.05;;;18.30;99.90;;;;;;6220056;23;20020;-81
2022/06/20 10:04:17;;;;;;;1.15;1.13;;;18.40;99.90;;;;;;6219742;23;20074;-81
2022/06/20 10:07:01;;;;;;;2.55;1.33;;;18.30;99.90;;;;;;6220263;23;20380;-81
2022/06/20 10:09:49;;;;;;;1.10;1.10;;;18.10;99.90;;;;;;6219589;23;20062;-82
2022/06/20 10:12:21;;;;;;;1.65;1.10;;;17.90;99.90;;;;;;6246199;23;20012;-82
2022/06/20 10:15:01;;;;;;;4.20;1.30;;;17.90;99.90;;;;;;6220070;23;20020;-81
2022/06/20 10:17:42;;;;;;;1.50;1.40;;;17.90;99.90;;;;;;6246313;23;20051;-81
2022/06/20 10:20:32;;;;;;;1.83;1.38;;;17.90;99.90;;;;;;6247040;23;20394;-81
2022/06/20 10:23:09;;;;;;;1.08;0.98;;;17.90;99.90;;;;;;6220239;23;20344;-82
2022/06/20 10:26:02;;;;;;;2.35;1.40;;;17.80;99.90;;;;;;6246009;23;20217;-81
2022/06/20 10:28:57;;;;;;;8.02;3.85;;;17.80;99.90;;;;;;6245925;23;20464;-82
2022/06/20 10:31:43;;;;;;;2.45;1.30;;;17.80;99.90;;;;;;6187818;23;20051;-82
2022/06/20 10:34:59;;;;;;;1.55;1.17;;;17.80;99.90;;;;;;6220231;23;20027;-81
2022/06/20 10:37:33;;;;;;;3.72;0.98;;;17.80;99.80;;;;;;6156797;23;20016;-82
2022/06/20 10:40:05;;;;;;;0.85;0.80;;;17.90;99.90;;;;;;6219901;23;20087;-82
2022/06/20 10:42:34;;;;;;;0.90;0.90;;;18.00;99.90;;;;;;6193967;23;20437;-82
2022/06/20 10:45:15;;;;;;;0.88;0.85;;;18.10;99.90;;;;;;6219698;23;20016;-81
2022/06/20 10:47:59;;;;;;;3.25;1.08;;;18.30;99.90;;;;;;6194161;23;20349;-82
2022/06/20 10:50:48;;;;;;;2.42;1.08;;;18.50;99.90;;;;;;6219202;23;20016;-81
2022/06/20 10:53:51;;;;;;;1.65;1.20;;;18.60;99.90;;;;;;6219846;23;20042;-81
2022/06/20 10:56:20;;;;;;;2.13;0.85;;;18.60;99.90;;;;;;6246460;23;20020;-82
2022/06/20 10:59:04;;;;;;;1.70;1.60;;;18.80;99.90;;;;;;6219646;23;20067;-81
2022/06/20 11:01:52;;;;;;;1.20;1.10;;;19.00;99.90;;;;;;6245807;23;20012;-82
2022/06/20 11:04:40;;;;;;;0.80;0.80;;;19.00;99.20;;;;;;6194111;23;20088;-81
2022/06/20 11:07:17;;;;;;;1.70;1.00;;;19.00;99.20;;;;;;6219194;23;20058;-81
2022/06/20 11:10:10;;;;;;;4.28;1.55;;;19.00;99.40;;;;;;6218973;23;20081;-81
2022/06/20 11:12:40;;;;;;;2.72;1.42;;;19.10;98.50;;;;;;6218973;23;20443;-81
2022/06/20 11:15:24;;;;;;;1.70;1.48;;;19.00;99.20;;;;;;6219581;23;20485;-81
2022/06/20 11:18:10;;;;;;;4.63;1.75;;;18.80;98.90;;;;;;6219306;23;20016;-81
2022/06/20 11:20:54;;;;;;;1.42;1.00;;;18.60;99.50;;;;;;6245727;23;20055;-81
2022/06/20 11:23:32;;;;;;;1.73;1.10;;;18.60;99.00;;;;;;6219081;23;20017;-82
2022/06/20 11:26:05;;;;;;;1.55;1.45;;;18.70;99.70;;;;;;6246522;23;20020;-81
2022/06/20 11:28:56;;;;;;;0.80;0.80;;;18.70;99.40;;;;;;6213613;23;20031;-82
2022/06/20 11:31:45;;;;;;;1.38;1.20;;;18.70;98.90;;;;;;6214338;23;20110;-81
2022/06/20 11:34:46;;;;;;;4.22;1.25;;;18.60;99.20;;;;;;6214426;23;20087;-81
2022/06/20 11:37:34;;;;;;;1.77;1.00;;;18.70;98.80;;;;;;6214600;23;20013;-82
2022/06/20 11:40:34;;;;;;;2.05;1.23;;;18.90;99.10;;;;;;6189435;23;20345;-81
2022/06/20 11:43:27;;;;;;;2.45;1.23;;;18.80;98.30;;;;;;6213792;23;20048;-81
2022/06/20 11:46:20;;;;;;;3.50;1.40;;;18.80;98.90;;;;;;6213781;23;20017;-81
2022/06/20 11:49:18;;;;;;;2.10;1.20;;;18.90;98.90;;;;;;6213640;23;20024;-81
2022/06/20 11:52:00;;;;;;;1.33;1.10;;;19.00;99.30;;;;;;6215169;23;20020;-81
2022/06/20 11:54:49;;;;;;;1.67;1.20;;;19.10;98.90;;;;;;6189183;23;20020;-81
2022/06/20 11:57:22;;;;;;;1.20;1.02;;;19.20;97.80;;;;;;6215924;23;20056;-82
2022/06/20 11:59:59;;;;;;;2.30;1.42;;;19.10;98.60;;;;;;6213557;23;20020;-81
2022/06/20 12:02:37;;;;;;;3.00;1.00;;;19.10;98.10;;;;;;6215486;23;20020;-81
2022/06/20 12:05:18;;;;;;;2.22;1.05;;;18.90;98.30;;;;;;6214350;23;20055;-81
2022/06/20 12:08:06;;;;;;;4.13;2.05;;;18.80;98.30;;;;;;6188351;23;20103;-81
2022/06/20 12:10:37;;;;;;;1.58;1.48;;;18.70;98.70;;;;;;6213474;23;20056;-82
2022/06/20 12:13:25;;;;;;;1.40;1.30;;;18.60;99.30;;;;;;6214263;23;20063;-81
2022/06/20 12:16:15;;;;;;;2.95;1.60;;;18.50;99.10;;;;;;6213206;23;20020;-81
2022/06/20 12:24:50;;;;;;;1.02;0.82;;;18.80;99.30;;;;;;6191735;23;20028;-82
2022/06/20 12:27:18;;;;;;;3.10;1.25;;;19.00;98.90;;;;;;6215381;23;20016;-81
2022/06/20 12:29:46;;;;;;;4.13;0.90;;;19.30;98.70;;;;;;6213321;23;20028;-81
2022/06/20 12:32:19;;;;;;;0.90;0.88;;;19.50;97.30;;;;;;6213794;23;20096;-81
2022/06/20 12:34:56;;;;;;;1.20;1.10;;;19.60;96.60;;;;;;6213427;23;20091;-81
2022/06/20 12:37:45;;;;;;;3.78;1.23;;;19.70;96.90;;;;;;6188855;23;20351;-81
2022/06/20 12:40:10;;;;;;;1.92;1.17;;;19.80;97.30;;;;;;6215334;23;20016;-81
2022/06/20 12:42:53;;;;;;;2.70;1.77;;;19.60;97.80;;;;;;6213236;23;20028;-81
2022/06/20 12:46:04;;;;;;;1.50;1.33;;;19.60;98.10;;;;;;6213818;23;20258;-81
2022/06/20 12:48:49;;;;;;;1.23;1.13;;;19.60;98.00;;;;;;6215380;23;20023;-82
2022/06/20 12:51:22;;;;;;;2.05;1.83;;;19.70;97.30;;;;;;6214060;23;20021;-81
2022/06/20 12:54:16;;;;;;;3.13;1.08;;;19.70;97.30;;;;;;6213197;23;20455;-81
2022/06/20 12:57:23;;;;;;;1.15;1.00;;;19.50;95.00;;;;;;6213349;23;20024;-81
2022/06/20 13:00:03;;;;;;;1.27;1.17;;;19.30;95.90;;;;;;6188007;23;20456;-81
2022/06/20 13:02:42;;;;;;;3.10;1.33;;;19.20;97.10;;;;;;6213524;23;20433;-81
2022/06/20 13:05:45;;;;;;;1.92;1.50;;;19.00;97.20;;;;;;6215172;23;20017;-81
2022/06/20 13:08:34;;;;;;;4.70;1.10;;;18.90;97.80;;;;;;6213528;23;20012;-81
2022/06/20 13:11:09;;;;;;;1.13;0.95;;;19.00;97.90;;;;;;6188793;23;20352;-81
2022/06/20 13:13:56;;;;;;;1.65;1.10;;;19.20;97.20;;;;;;6214924;23;20062;-89
2022/06/20 13:16:37;;;;;;;2.33;0.90;;;19.50;96.40;;;;;;6213712;23;20027;-81
2022/06/20 13:19:36;;;;;;;1.10;0.95;;;19.70;96.80;;;;;;6215428;23;20047;-81
2022/06/20 13:22:30;;;;;;;1.63;1.08;;;19.80;96.50;;;;;;6213503;23;20345;-81
2022/06/20 13:25:14;;;;;;;1.38;1.13;;;19.80;97.10;;;;;;6214637;23;20027;-81
2022/06/20 13:27:48;;;;;;;1.45;0.82;;;19.70;96.80;;;;;;6212879;23;20013;-81
2022/06/20 13:30:57;;;;;;;0.95;0.90;;;19.50;97.20;;;;;;6213456;23;20020;-81
2022/06/20 13:33:41;;;;;;;2.72;1.00;;;19.40;96.60;;;;;;6045874;23;20378;-81
2022/06/20 13:36:47;;;;;;;1.00;0.90;;;19.30;97.10;;;;;;6069550;23;20093;-81
2022/06/20 13:39:41;;;;;;;1.10;1.00;;;19.40;96.60;;;;;;6143390;23;20453;-81
2022/06/20 13:42:32;;;;;;;1.50;1.40;;;19.30;97.00;;;;;;6213710;23;20024;-81
2022/06/20 13:45:10;;;;;;;6.70;1.83;;;19.10;96.60;;;;;;6214505;23;20036;-82
2022/06/20 13:47:46;;;;;;;1.55;1.00;;;19.00;97.10;;;;;;6215001;23;20013;-82
2022/06/20 13:50:55;;;;;;;1.55;1.08;;;18.90;97.30;;;;;;6190566;23;20019;-81
2022/06/20 13:54:02;;;;;;;1.38;1.02;;;18.70;97.20;;;;;;6071248;23;20407;-81
2022/06/20 13:56:38;;;;;;;4.63;1.48;;;18.60;97.70;;;;;;6157165;23;20017;-81